1°C Temp
-5°C Dewpoint
65% Humidity
Temperature
14 KM/H
9 MPH
8 KTS
200°
South South
West

Wind Speed
Overcast
Conditions
Pressure 1018.62 (hPa) - 30.08 (in)
Visibility 8.7 (mi) - 14.0 (km)

Current Conditions
CYZE
Location 50(km)
Metar :CYZE 232300Z AUTO 20008KT 9SM OVC140 01/M05 A3008 RMK SLP197
Tue 23rd November 18:00 pm

Airport
  Metar Aviation API Data Provided by https://www.checkwx.com/ PHP scripts by weather34.com ©2021